Who's Online

We have 7 guests online

Aviation WX

[source: ADDS]
METAR
KIAD 210352Z 00000KT 10SM CLR 16/15 A3007 RMK AO2 SLP182 T01560150 =
TAF
KIAD 202348Z 2100/2206 VRB03KT P6SM FEW250 FM211000 00000KT 3SM BR SCT250 FM211400 VRB03KT P6SM SCT250 FM211900 25007KT P6SM BKN250 =
SR / SS: 00:38 / 12:52 UTC (Washington-Dulles 2014-09-20)

JoomlaWatch Agent

Home Products and Services

This section describes Multilink Systems products and services

 

 

Under construction Please Standby